Terminal Aerodrome Forecast
Issued by NWS

Home | Current Version | Previous Version | Text Only | Print | Product List | Glossary On
Versions: 1 2 3 4 5 6 7 8 9 10 11 12 13 14 15 16 17 18 19 20 21 22 23 24 25 26 27 28 29 30 31 32 33
000
FTUS45 KGJT 300758 AAB
TAFASE
TAF AMD
KASE 300758Z 3008/3106 17005KT P6SM -RA BKN080 OVC100
     FM300900 21004KT P6SM VCSH FEW045 BKN070
     FM301200 VRB03KT P6SM VCSH BKN060
     FM301900 36007KT P6SM -TSRA SCT050CB BKN090
     FM302200 36008KT P6SM -TSRA BKN050CB
     FM310100 05010KT 6SM -RA OVC050=

USA.gov is the U.S. government's official web portal to all federal, state and local government web resources and services.